createdAt,value
2022-11-20T00:02:37.008Z,63.22
2022-11-20T00:05:38.508Z,63.48
2022-11-20T00:08:40.383Z,63.16
2022-11-20T00:11:42.208Z,63.33
2022-11-20T00:14:43.732Z,63.37
2022-11-20T00:17:45.436Z,63.48
2022-11-20T00:20:46.949Z,63.51
2022-11-20T00:23:49.352Z,63.56
2022-11-20T00:26:50.984Z,63.48
2022-11-20T00:29:52.563Z,63.64
2022-11-20T00:32:54.095Z,63.67
2022-11-20T00:36:00.649Z,63.76
2022-11-20T00:39:02.348Z,63.68
2022-11-20T00:42:04.043Z,63.59
2022-11-20T00:45:06.159Z,63.51
2022-11-20T00:48:07.709Z,63.65
2022-11-20T00:51:09.915Z,63.57
2022-11-20T00:54:11.447Z,63.71
2022-11-20T00:57:12.963Z,63.51
2022-11-20T01:00:15.122Z,63.60
2022-11-20T01:03:21.547Z,63.72
2022-11-20T01:06:27.240Z,63.68
2022-11-20T01:09:28.824Z,63.88
2022-11-20T01:12:30.380Z,63.73
2022-11-20T01:15:34.883Z,63.81
2022-11-20T01:18:39.070Z,63.61
2022-11-20T01:21:42.792Z,63.59
2022-11-20T01:24:44.292Z,63.78
2022-11-20T01:27:45.820Z,63.46
2022-11-20T01:30:47.351Z,63.81
2022-11-20T01:33:50.844Z,63.70
2022-11-20T01:36:53.731Z,63.66
2022-11-20T01:39:55.278Z,63.79
2022-11-20T01:43:22.729Z,63.79
2022-11-20T01:46:24.446Z,63.76
2022-11-20T01:49:41.931Z,63.67
2022-11-20T01:53:13.254Z,63.70
2022-11-20T01:56:16.022Z,63.87
2022-11-20T01:59:21.123Z,63.84
2022-11-20T02:02:23.238Z,63.79
2022-11-20T02:05:39.507Z,63.61
2022-11-20T02:08:41.074Z,63.91
2022-11-20T02:11:43.168Z,63.84
2022-11-20T02:14:44.771Z,63.72
2022-11-20T02:17:46.315Z,63.73
2022-11-20T02:20:51.071Z,63.98
2022-11-20T02:24:04.935Z,63.77
2022-11-20T02:27:10.957Z,63.80
2022-11-20T02:30:12.779Z,63.74
2022-11-20T02:33:14.349Z,63.92
2022-11-20T02:36:17.231Z,63.83
2022-11-20T02:39:20.742Z,63.92
2022-11-20T02:42:22.462Z,63.96
2022-11-20T02:45:25.186Z,64.02
2022-11-20T02:48:30.148Z,64.04
2022-11-20T02:51:34.191Z,63.79
2022-11-20T02:54:35.776Z,63.90
2022-11-20T02:57:37.345Z,63.93
2022-11-20T03:00:38.891Z,63.83
2022-11-20T03:03:40.416Z,64.09
2022-11-20T03:06:41.963Z,64.08
2022-11-20T03:09:43.483Z,63.83
2022-11-20T03:12:45.065Z,64.05
2022-11-20T03:15:46.632Z,63.86
2022-11-20T03:18:48.377Z,63.99
2022-11-20T03:21:49.910Z,63.85
2022-11-20T03:24:52.163Z,64.06
2022-11-20T03:27:54.508Z,63.94
2022-11-20T03:30:56.167Z,64.03
2022-11-20T03:33:59.016Z,64.01
2022-11-20T03:37:00.555Z,64.07
2022-11-20T03:40:02.068Z,63.81
2022-11-20T03:43:03.656Z,64.03
2022-11-20T03:46:06.248Z,63.76
2022-11-20T03:49:07.791Z,64.09
2022-11-20T03:52:09.315Z,63.90
2022-11-20T03:55:10.935Z,63.87
2022-11-20T03:58:12.543Z,64.08
2022-11-20T04:01:22.830Z,63.76
2022-11-20T04:04:24.518Z,63.78
2022-11-20T04:07:26.132Z,63.97
2022-11-20T04:10:27.654Z,63.95
2022-11-20T04:13:29.280Z,64.03
2022-11-20T04:16:33.763Z,63.92
2022-11-20T04:19:35.305Z,63.90
2022-11-20T04:22:36.822Z,63.86
2022-11-20T04:25:38.356Z,63.87
2022-11-20T04:28:40.677Z,64.02
2022-11-20T04:31:42.204Z,64.00
2022-11-20T04:34:43.747Z,63.90
2022-11-20T04:37:45.324Z,63.99
2022-11-20T04:40:46.828Z,63.80
2022-11-20T04:43:53.692Z,63.85
2022-11-20T04:46:55.291Z,63.96
2022-11-20T04:49:56.951Z,64.01
2022-11-20T04:52:58.635Z,63.91
2022-11-20T04:56:05.255Z,63.90
2022-11-20T04:59:06.789Z,64.06
2022-11-20T05:02:08.659Z,63.94
2022-11-20T05:05:10.199Z,63.88
2022-11-20T05:08:11.728Z,63.94
2022-11-20T05:11:19.479Z,63.85
2022-11-20T05:14:21.011Z,63.95
2022-11-20T05:17:22.729Z,63.90
2022-11-20T05:20:24.277Z,63.98
2022-11-20T05:23:26.686Z,63.81
2022-11-20T05:26:28.965Z,63.94
2022-11-20T05:29:30.515Z,63.87
2022-11-20T05:32:32.119Z,63.90
2022-11-20T05:35:33.672Z,63.73
2022-11-20T05:38:35.204Z,63.76
2022-11-20T05:41:36.735Z,65.00
2022-11-20T05:44:38.288Z,64.51
2022-11-20T05:47:39.854Z,64.56
2022-11-20T05:50:41.390Z,64.31
2022-11-20T05:53:48.027Z,64.01
2022-11-20T05:56:49.988Z,63.94
2022-11-20T05:59:51.662Z,63.85
2022-11-20T06:02:53.227Z,63.88
2022-11-20T06:05:54.780Z,64.01
2022-11-20T06:08:56.684Z,63.95
2022-11-20T06:11:58.274Z,63.63
2022-11-20T06:15:00.880Z,63.69
2022-11-20T06:18:02.667Z,63.95
2022-11-20T06:21:10.654Z,63.69
2022-11-20T06:24:12.787Z,63.70
2022-11-20T06:27:14.438Z,63.51
2022-11-20T06:30:16.307Z,63.49
2022-11-20T06:33:17.872Z,63.67
2022-11-20T06:36:22.291Z,63.40
2022-11-20T06:39:24.143Z,63.28
2022-11-20T06:42:25.837Z,63.38
2022-11-20T06:45:27.773Z,63.21
2022-11-20T06:48:29.969Z,63.12
2022-11-20T06:51:31.532Z,64.33
2022-11-20T06:54:33.093Z,63.78
2022-11-20T06:57:34.620Z,63.42
2022-11-20T07:00:36.207Z,63.60
2022-11-20T07:03:38.440Z,63.48
2022-11-20T07:06:39.990Z,63.54
2022-11-20T07:09:41.487Z,63.50
2022-11-20T07:12:43.048Z,63.46
2022-11-20T07:15:44.584Z,64.00
2022-11-20T07:18:50.404Z,63.82
2022-11-20T07:21:52.695Z,63.71
2022-11-20T07:24:54.220Z,63.67
2022-11-20T07:28:00.019Z,63.55
2022-11-20T07:31:01.814Z,63.55
2022-11-20T07:34:03.718Z,63.46
2022-11-20T07:37:10.204Z,63.74
2022-11-20T07:40:16.443Z,63.74
2022-11-20T07:43:18.014Z,63.85
2022-11-20T07:46:19.559Z,63.73
2022-11-20T07:49:21.338Z,63.77
2022-11-20T07:52:23.172Z,63.57
2022-11-20T07:55:24.667Z,63.81
2022-11-20T07:58:26.202Z,63.52
2022-11-20T08:01:27.797Z,63.55
2022-11-20T08:04:29.326Z,63.84
2022-11-20T08:07:30.909Z,63.61
2022-11-20T08:10:32.517Z,63.50
2022-11-20T08:13:52.358Z,63.87
2022-11-20T08:16:53.995Z,63.66
2022-11-20T08:19:55.559Z,63.81
2022-11-20T08:23:02.233Z,64.09
2022-11-20T08:26:03.792Z,63.84
2022-11-20T08:29:06.108Z,63.87
2022-11-20T08:32:07.719Z,63.66
2022-11-20T08:35:09.642Z,63.67
2022-11-20T08:38:11.130Z,63.65
2022-11-20T08:41:24.576Z,63.77
2022-11-20T08:44:26.172Z,63.90
2022-11-20T08:47:27.725Z,63.68
2022-11-20T08:50:29.670Z,63.77
2022-11-20T08:53:31.266Z,64.07
2022-11-20T08:56:33.207Z,63.54
2022-11-20T09:00:04.308Z,63.52
2022-11-20T09:02:56.268Z,63.74
2022-11-20T09:06:00.174Z,63.90
2022-11-20T09:09:06.398Z,63.83
2022-11-20T09:12:08.539Z,63.64
2022-11-20T09:15:10.519Z,63.92
2022-11-20T09:18:12.099Z,63.98
2022-11-20T09:21:14.951Z,63.73
2022-11-20T09:24:16.570Z,63.78
2022-11-20T09:27:24.225Z,63.83
2022-11-20T09:30:26.800Z,64.08
2022-11-20T09:33:28.779Z,64.29
2022-11-20T09:36:30.322Z,63.99
2022-11-20T09:39:32.416Z,64.00
2022-11-20T09:42:55.258Z,63.78
2022-11-20T09:46:15.175Z,64.11
2022-11-20T09:49:32.829Z,63.84
2022-11-20T09:52:53.199Z,63.75
2022-11-20T09:55:56.790Z,63.95
2022-11-20T09:59:06.902Z,63.76
2022-11-20T10:02:25.868Z,63.98
2022-11-20T10:05:32.485Z,63.98
2022-11-20T10:08:45.514Z,63.97
2022-11-20T10:11:57.799Z,63.86
2022-11-20T10:15:17.771Z,63.71
2022-11-20T10:18:34.537Z,63.74
2022-11-20T10:22:00.838Z,63.99
2022-11-20T10:25:23.314Z,63.81
2022-11-20T10:28:24.824Z,64.10
2022-11-20T10:31:37.311Z,63.80
2022-11-20T10:35:00.690Z,63.75
2022-11-20T10:38:08.039Z,63.74
2022-11-20T10:41:26.898Z,63.80
2022-11-20T10:44:51.273Z,63.76
2022-11-20T10:48:18.051Z,63.64
2022-11-20T10:51:33.267Z,63.65
2022-11-20T10:55:05.867Z,63.77
2022-11-20T10:58:10.378Z,64.01
2022-11-20T11:01:24.220Z,64.06
2022-11-20T11:04:44.080Z,63.76
2022-11-20T11:07:47.054Z,64.31
2022-11-20T11:10:58.544Z,64.33
2022-11-20T11:14:16.570Z,63.84
2022-11-20T11:17:22.635Z,64.01
2022-11-20T11:20:26.467Z,64.07
2022-11-20T11:23:37.739Z,64.10
2022-11-20T11:26:39.251Z,63.96
2022-11-20T11:29:40.848Z,63.72
2022-11-20T11:32:42.850Z,63.80
2022-11-20T11:35:51.718Z,63.70
2022-11-20T11:38:54.910Z,64.04
2022-11-20T11:41:56.820Z,64.06
2022-11-20T11:45:07.321Z,63.76
2022-11-20T11:48:10.410Z,63.85
2022-11-20T11:51:11.978Z,63.81
2022-11-20T11:54:48.747Z,63.95
2022-11-20T11:58:21.380Z,63.84
2022-11-20T12:01:44.195Z,63.81
2022-11-20T12:04:53.993Z,64.05
2022-11-20T12:08:23.818Z,64.20
2022-11-20T12:12:22.886Z,63.79
2022-11-20T12:15:30.986Z,63.78
2022-11-20T12:18:32.978Z,64.06
2022-11-20T12:22:14.117Z,64.05
2022-11-20T12:25:19.671Z,64.15
2022-11-20T12:28:30.042Z,63.87
2022-11-20T12:31:31.547Z,63.76
2022-11-20T12:35:11.553Z,63.78
2022-11-20T12:38:16.738Z,64.07
2022-11-20T12:41:49.307Z,64.07
2022-11-20T12:45:11.900Z,63.71
2022-11-20T12:48:31.430Z,64.00
2022-11-20T12:51:43.432Z,63.58
2022-11-20T12:55:00.153Z,63.90
2022-11-20T12:58:37.610Z,63.66
2022-11-20T13:01:52.245Z,63.78
2022-11-20T13:05:06.883Z,63.99
2022-11-20T13:08:25.422Z,64.00
2022-11-20T13:11:45.819Z,64.02
2022-11-20T13:14:55.219Z,63.89
2022-11-20T13:18:00.329Z,63.64
2022-11-20T13:21:01.854Z,63.83
2022-11-20T13:24:27.031Z,63.76
2022-11-20T13:27:31.956Z,63.81
2022-11-20T13:30:35.914Z,63.70
2022-11-20T13:33:39.197Z,63.75
2022-11-20T13:36:54.863Z,63.94
2022-11-20T13:40:25.894Z,64.07
2022-11-20T13:43:27.391Z,63.93
2022-11-20T13:46:48.003Z,63.74
2022-11-20T13:49:50.383Z,63.79
2022-11-20T13:53:30.186Z,63.89
2022-11-20T13:56:52.098Z,63.98
2022-11-20T14:00:11.972Z,64.05
2022-11-20T14:03:50.767Z,63.92
2022-11-20T14:06:47.266Z,63.99
2022-11-20T14:09:54.495Z,64.04
2022-11-20T14:12:56.584Z,63.98
2022-11-20T14:15:59.184Z,63.66
2022-11-20T14:19:20.961Z,63.81
2022-11-20T14:22:25.146Z,63.60
2022-11-20T14:25:32.104Z,63.77
2022-11-20T14:28:33.844Z,63.87
2022-11-20T14:31:35.451Z,63.93
2022-11-20T14:34:41.497Z,63.58
2022-11-20T14:37:43.123Z,63.74
2022-11-20T14:40:45.141Z,63.92
2022-11-20T14:43:57.915Z,63.70
2022-11-20T14:47:02.191Z,63.54
2022-11-20T14:50:09.668Z,63.87
2022-11-20T14:53:11.590Z,64.05
2022-11-20T14:56:13.120Z,63.85
2022-11-20T14:59:33.979Z,63.94
2022-11-20T15:02:39.877Z,63.85
2022-11-20T15:05:50.107Z,63.88
2022-11-20T15:08:53.110Z,63.58
2022-11-20T15:12:05.443Z,63.64
2022-11-20T15:15:11.830Z,63.60
2022-11-20T15:18:37.456Z,63.76
2022-11-20T15:21:38.963Z,63.69
2022-11-20T15:24:40.496Z,63.88
2022-11-20T15:27:43.215Z,63.95
2022-11-20T15:30:46.709Z,63.84
2022-11-20T15:33:48.648Z,63.57
2022-11-20T15:36:50.190Z,63.65
2022-11-20T15:39:51.699Z,63.64
2022-11-20T15:43:11.381Z,63.88
2022-11-20T15:46:28.247Z,63.72
2022-11-20T15:49:29.823Z,63.78
2022-11-20T15:52:41.534Z,63.83
2022-11-20T15:55:43.691Z,63.65
2022-11-20T15:58:45.234Z,63.36
2022-11-20T16:01:47.368Z,63.49
2022-11-20T16:04:48.961Z,63.55
2022-11-20T16:07:52.397Z,63.28
2022-11-20T16:10:53.962Z,63.26
2022-11-20T16:14:13.975Z,63.32
2022-11-20T16:17:15.627Z,63.39
2022-11-20T16:20:17.147Z,63.05
2022-11-20T16:23:19.127Z,63.39
2022-11-20T16:26:21.741Z,63.36
2022-11-20T16:29:23.607Z,63.27
2022-11-20T16:32:25.229Z,63.22
2022-11-20T16:35:28.496Z,63.28
2022-11-20T16:38:30.011Z,63.31
2022-11-20T16:41:33.547Z,63.32
2022-11-20T16:44:35.526Z,63.31
2022-11-20T16:47:37.392Z,63.29
2022-11-20T16:50:46.003Z,63.18
2022-11-20T16:53:47.745Z,63.27
2022-11-20T16:56:51.042Z,63.44
2022-11-20T16:59:52.554Z,63.35
2022-11-20T17:02:54.689Z,63.15
2022-11-20T17:05:56.442Z,62.96
2022-11-20T17:08:58.597Z,63.08
2022-11-20T17:12:00.310Z,62.83
2022-11-20T17:15:01.850Z,63.26
2022-11-20T17:18:03.626Z,63.16
2022-11-20T17:21:05.834Z,63.07
2022-11-20T17:24:10.485Z,63.07
2022-11-20T17:27:12.155Z,63.24
2022-11-20T17:30:13.799Z,63.03
2022-11-20T17:33:15.316Z,62.89
2022-11-20T17:36:17.937Z,63.06
2022-11-20T17:39:19.806Z,62.85
2022-11-20T17:42:27.473Z,63.15
2022-11-20T17:45:28.976Z,62.96
2022-11-20T17:48:30.683Z,63.13
2022-11-20T17:51:35.303Z,62.95
2022-11-20T17:54:36.937Z,63.13
2022-11-20T17:57:53.365Z,63.07
2022-11-20T18:00:54.958Z,63.10
2022-11-20T18:03:57.460Z,63.24
2022-11-20T18:06:59.061Z,63.04
2022-11-20T18:10:00.671Z,63.07
2022-11-20T18:13:02.391Z,63.20
2022-11-20T18:16:07.831Z,63.27
2022-11-20T18:19:10.785Z,63.42
2022-11-20T18:22:14.014Z,63.51
2022-11-20T18:25:15.675Z,63.44
2022-11-20T18:28:19.839Z,63.32
2022-11-20T18:31:21.483Z,63.10
2022-11-20T18:34:23.697Z,62.92
2022-11-20T18:37:25.441Z,63.09
2022-11-20T18:40:27.007Z,63.20
2022-11-20T18:43:47.036Z,63.35
2022-11-20T18:46:48.657Z,63.29
2022-11-20T18:49:54.043Z,63.25
2022-11-20T18:52:55.602Z,63.26
2022-11-20T18:55:57.363Z,63.25
2022-11-20T18:59:01.537Z,63.45
2022-11-20T19:02:03.291Z,63.46
2022-11-20T19:05:05.962Z,63.43
2022-11-20T19:08:07.524Z,63.36
2022-11-20T19:11:11.367Z,63.18
2022-11-20T19:14:12.915Z,62.79
2022-11-20T19:17:14.627Z,63.31
2022-11-20T19:20:16.254Z,62.77
2022-11-20T19:23:18.785Z,63.07
2022-11-20T19:26:21.024Z,62.79
2022-11-20T19:29:24.043Z,63.19
2022-11-20T19:32:25.766Z,63.17
2022-11-20T19:35:27.264Z,63.21
2022-11-20T19:38:28.798Z,63.40
2022-11-20T19:41:31.965Z,63.46
2022-11-20T19:44:33.537Z,63.62
2022-11-20T19:48:00.985Z,63.36
2022-11-20T19:50:57.101Z,63.66
2022-11-20T19:53:59.593Z,63.40
2022-11-20T19:57:01.234Z,63.50
2022-11-20T20:00:02.815Z,63.09
2022-11-20T20:03:04.391Z,63.41
2022-11-20T20:06:09.504Z,63.35
2022-11-20T20:09:13.088Z,63.26
2022-11-20T20:12:14.596Z,63.31
2022-11-20T20:15:16.129Z,63.26
2022-11-20T20:18:17.847Z,62.98
2022-11-20T20:21:19.512Z,63.46
2022-11-20T20:24:21.085Z,63.19
2022-11-20T20:27:22.613Z,62.84
2022-11-20T20:30:24.181Z,63.28
2022-11-20T20:33:25.707Z,63.06
2022-11-20T20:36:27.321Z,63.03
2022-11-20T20:39:29.334Z,63.08
2022-11-20T20:42:32.276Z,63.45
2022-11-20T20:45:33.819Z,63.11
2022-11-20T20:48:35.328Z,63.33
2022-11-20T20:51:37.022Z,63.53
2022-11-20T20:54:38.621Z,63.27
2022-11-20T20:57:40.180Z,63.44
2022-11-20T21:00:41.736Z,63.30
2022-11-20T21:03:43.447Z,62.95
2022-11-20T21:06:44.954Z,63.11
2022-11-20T21:09:46.694Z,63.37
2022-11-20T21:12:48.190Z,63.22
2022-11-20T21:15:51.448Z,63.45
2022-11-20T21:18:53.101Z,63.13
2022-11-20T21:22:00.452Z,62.93
2022-11-20T21:25:02.056Z,63.58
2022-11-20T21:28:03.591Z,63.65
2022-11-20T21:31:10.647Z,63.42
2022-11-20T21:34:13.230Z,63.38
2022-11-20T21:37:14.930Z,63.60
2022-11-20T21:40:16.927Z,62.87
2022-11-20T21:43:18.498Z,63.10
2022-11-20T21:46:20.046Z,63.26
2022-11-20T21:49:21.924Z,62.87
2022-11-20T21:52:23.797Z,62.95
2022-11-20T21:55:25.299Z,63.14
2022-11-20T21:58:27.729Z,63.38
2022-11-20T22:01:30.620Z,63.40
2022-11-20T22:04:32.259Z,63.04
2022-11-20T22:07:33.905Z,63.01
2022-11-20T22:10:35.459Z,62.86
2022-11-20T22:13:55.821Z,62.95
2022-11-20T22:16:57.417Z,62.69
2022-11-20T22:19:58.955Z,62.55
2022-11-20T22:23:00.483Z,62.92
2022-11-20T22:26:23.715Z,62.45
2022-11-20T22:29:25.263Z,62.88
2022-11-20T22:32:26.811Z,62.76
2022-11-20T22:35:28.383Z,62.56
2022-11-20T22:38:31.462Z,62.75
2022-11-20T22:41:35.532Z,62.64
2022-11-20T22:44:37.069Z,62.62
2022-11-20T22:47:38.590Z,62.51
2022-11-20T22:50:40.150Z,62.58
2022-11-20T22:53:43.399Z,62.48
2022-11-20T22:56:45.623Z,62.77
2022-11-20T22:59:47.177Z,62.79
2022-11-20T23:02:48.734Z,62.90
2022-11-20T23:05:50.321Z,62.67
2022-11-20T23:08:52.650Z,62.28
2022-11-20T23:11:54.195Z,62.64
2022-11-20T23:14:55.787Z,62.66
2022-11-20T23:17:57.382Z,62.59
2022-11-20T23:21:13.895Z,62.14
2022-11-20T23:24:15.406Z,62.24
2022-11-20T23:27:19.657Z,62.43
2022-11-20T23:30:21.803Z,62.53
2022-11-20T23:33:23.970Z,62.28
2022-11-20T23:36:26.107Z,62.50
2022-11-20T23:39:27.657Z,62.72
2022-11-20T23:42:29.168Z,62.83
2022-11-20T23:45:30.707Z,62.45
2022-11-20T23:48:34.931Z,62.94
2022-11-20T23:51:36.418Z,62.76
2022-11-20T23:54:38.015Z,62.91
2022-11-20T23:57:39.555Z,63.02
